sensor_id;sensor_type;location;lat;lon;timestamp;temperature;humidity
41838;DHT22;27511;52.042;5.178;2022-11-13T00:02:23;10.10;99.90
41838;DHT22;27511;52.042;5.178;2022-11-13T00:04:49;10.00;99.90
41838;DHT22;27511;52.042;5.178;2022-11-13T00:07:14;10.10;99.90
41838;DHT22;27511;52.042;5.178;2022-11-13T00:09:40;10.10;99.90
41838;DHT22;27511;52.042;5.178;2022-11-13T00:12:05;10.10;99.90
41838;DHT22;27511;52.042;5.178;2022-11-13T00:14:31;10.10;99.90
41838;DHT22;27511;52.042;5.178;2022-11-13T00:16:56;10.10;99.90
41838;DHT22;27511;52.042;5.178;2022-11-13T00:19:22;10.10;99.90
41838;DHT22;27511;52.042;5.178;2022-11-13T00:21:48;10.10;99.90
41838;DHT22;27511;52.042;5.178;2022-11-13T00:24:13;10.00;99.90
41838;DHT22;27511;52.042;5.178;2022-11-13T00:26:39;10.00;99.90
41838;DHT22;27511;52.042;5.178;2022-11-13T00:29:04;10.00;99.90
41838;DHT22;27511;52.042;5.178;2022-11-13T00:31:30;10.00;99.90
41838;DHT22;27511;52.042;5.178;2022-11-13T00:33:57;10.00;99.90
41838;DHT22;27511;52.042;5.178;2022-11-13T00:36:26;10.00;99.90
41838;DHT22;27511;52.042;5.178;2022-11-13T00:38:52;10.00;99.90
41838;DHT22;27511;52.042;5.178;2022-11-13T00:41:18;10.00;99.90
41838;DHT22;27511;52.042;5.178;2022-11-13T00:43:44;10.00;99.90
41838;DHT22;27511;52.042;5.178;2022-11-13T00:46:09;10.00;99.90
41838;DHT22;27511;52.042;5.178;2022-11-13T00:48:35;10.00;99.90
41838;DHT22;27511;52.042;5.178;2022-11-13T00:51:01;9.90;99.90
41838;DHT22;27511;52.042;5.178;2022-11-13T00:53:27;10.00;99.90
41838;DHT22;27511;52.042;5.178;2022-11-13T00:55:52;10.00;99.90
41838;DHT22;27511;52.042;5.178;2022-11-13T00:58:18;9.90;99.90
41838;DHT22;27511;52.042;5.178;2022-11-13T01:00:45;9.90;99.90
41838;DHT22;27511;52.042;5.178;2022-11-13T01:03:12;9.90;99.90
41838;DHT22;27511;52.042;5.178;2022-11-13T01:05:39;10.00;99.90
41838;DHT22;27511;52.042;5.178;2022-11-13T01:08:06;9.90;99.90
41838;DHT22;27511;52.042;5.178;2022-11-13T01:10:34;9.90;99.90
41838;DHT22;27511;52.042;5.178;2022-11-13T01:13:02;9.90;99.90
41838;DHT22;27511;52.042;5.178;2022-11-13T01:15:27;10.00;99.90
41838;DHT22;27511;52.042;5.178;2022-11-13T01:17:53;9.90;99.90
41838;DHT22;27511;52.042;5.178;2022-11-13T01:20:21;10.00;99.90
41838;DHT22;27511;52.042;5.178;2022-11-13T01:22:46;10.00;99.90
41838;DHT22;27511;52.042;5.178;2022-11-13T01:25:12;10.00;99.90
41838;DHT22;27511;52.042;5.178;2022-11-13T01:27:37;10.00;99.90
41838;DHT22;27511;52.042;5.178;2022-11-13T01:30:03;10.00;99.90
41838;DHT22;27511;52.042;5.178;2022-11-13T01:32:29;9.90;99.90
41838;DHT22;27511;52.042;5.178;2022-11-13T01:34:55;9.90;99.90
41838;DHT22;27511;52.042;5.178;2022-11-13T01:37:20;9.90;99.90
41838;DHT22;27511;52.042;5.178;2022-11-13T01:39:46;9.90;99.90
41838;DHT22;27511;52.042;5.178;2022-11-13T01:42:12;9.90;99.90
41838;DHT22;27511;52.042;5.178;2022-11-13T01:44:52;9.90;99.90
41838;DHT22;27511;52.042;5.178;2022-11-13T01:47:18;9.90;99.90
41838;DHT22;27511;52.042;5.178;2022-11-13T01:49:46;9.80;99.90
41838;DHT22;27511;52.042;5.178;2022-11-13T01:52:25;9.80;99.90
41838;DHT22;27511;52.042;5.178;2022-11-13T01:54:56;9.80;99.90
41838;DHT22;27511;52.042;5.178;2022-11-13T01:57:23;9.80;99.90
41838;DHT22;27511;52.042;5.178;2022-11-13T01:59:52;9.80;99.90
41838;DHT22;27511;52.042;5.178;2022-11-13T02:02:19;9.80;99.90
41838;DHT22;27511;52.042;5.178;2022-11-13T02:04:45;9.80;99.90
41838;DHT22;27511;52.042;5.178;2022-11-13T02:07:13;9.80;99.90
41838;DHT22;27511;52.042;5.178;2022-11-13T02:09:45;9.80;99.90
41838;DHT22;27511;52.042;5.178;2022-11-13T02:12:13;9.70;99.90
41838;DHT22;27511;52.042;5.178;2022-11-13T02:14:49;9.70;99.90
41838;DHT22;27511;52.042;5.178;2022-11-13T02:17:21;9.60;99.90
41838;DHT22;27511;52.042;5.178;2022-11-13T02:19:50;9.60;99.90
41838;DHT22;27511;52.042;5.178;2022-11-13T02:22:31;9.70;99.90
41838;DHT22;27511;52.042;5.178;2022-11-13T02:25:00;9.60;99.90
41838;DHT22;27511;52.042;5.178;2022-11-13T02:27:31;9.60;99.90
41838;DHT22;27511;52.042;5.178;2022-11-13T02:29:58;9.50;99.90
41838;DHT22;27511;52.042;5.178;2022-11-13T02:32:23;9.50;99.90
41838;DHT22;27511;52.042;5.178;2022-11-13T02:34:49;9.50;99.90
41838;DHT22;27511;52.042;5.178;2022-11-13T02:37:14;9.50;99.90
41838;DHT22;27511;52.042;5.178;2022-11-13T02:39:40;9.40;99.90
41838;DHT22;27511;52.042;5.178;2022-11-13T02:42:05;9.40;99.90
41838;DHT22;27511;52.042;5.178;2022-11-13T02:44:31;9.40;99.90
41838;DHT22;27511;52.042;5.178;2022-11-13T02:46:56;9.30;99.90
41838;DHT22;27511;52.042;5.178;2022-11-13T02:49:22;9.30;99.90
41838;DHT22;27511;52.042;5.178;2022-11-13T02:51:47;9.30;99.90
41838;DHT22;27511;52.042;5.178;2022-11-13T02:54:13;9.30;99.90
41838;DHT22;27511;52.042;5.178;2022-11-13T02:56:38;9.20;99.90
41838;DHT22;27511;52.042;5.178;2022-11-13T02:59:04;9.20;99.90
41838;DHT22;27511;52.042;5.178;2022-11-13T03:01:30;9.20;99.90
41838;DHT22;27511;52.042;5.178;2022-11-13T03:03:55;9.20;99.90
41838;DHT22;27511;52.042;5.178;2022-11-13T03:06:21;9.20;99.90
41838;DHT22;27511;52.042;5.178;2022-11-13T03:08:46;9.20;99.90
41838;DHT22;27511;52.042;5.178;2022-11-13T03:11:12;9.30;99.90
41838;DHT22;27511;52.042;5.178;2022-11-13T03:13:38;9.30;99.90
41838;DHT22;27511;52.042;5.178;2022-11-13T03:16:09;9.30;99.90
41838;DHT22;27511;52.042;5.178;2022-11-13T03:18:35;9.30;99.90
41838;DHT22;27511;52.042;5.178;2022-11-13T03:21:09;9.30;99.90
41838;DHT22;27511;52.042;5.178;2022-11-13T03:23:36;9.30;99.90
41838;DHT22;27511;52.042;5.178;2022-11-13T03:26:06;9.30;99.90
41838;DHT22;27511;52.042;5.178;2022-11-13T03:28:33;9.30;99.90
41838;DHT22;27511;52.042;5.178;2022-11-13T03:30:58;9.20;99.90
41838;DHT22;27511;52.042;5.178;2022-11-13T03:33:24;9.10;99.90
41838;DHT22;27511;52.042;5.178;2022-11-13T03:35:50;9.10;99.90
41838;DHT22;27511;52.042;5.178;2022-11-13T03:38:15;9.10;99.90
41838;DHT22;27511;52.042;5.178;2022-11-13T03:40:41;9.10;99.90
41838;DHT22;27511;52.042;5.178;2022-11-13T03:43:06;9.10;99.90
41838;DHT22;27511;52.042;5.178;2022-11-13T03:45:33;9.10;99.90
41838;DHT22;27511;52.042;5.178;2022-11-13T03:47:58;9.10;99.90
41838;DHT22;27511;52.042;5.178;2022-11-13T03:50:24;9.10;99.90
41838;DHT22;27511;52.042;5.178;2022-11-13T03:52:49;9.10;99.90
41838;DHT22;27511;52.042;5.178;2022-11-13T03:55:16;9.10;99.90
41838;DHT22;27511;52.042;5.178;2022-11-13T03:57:41;9.20;99.90
41838;DHT22;27511;52.042;5.178;2022-11-13T04:00:08;9.30;99.90
41838;DHT22;27511;52.042;5.178;2022-11-13T04:02:34;9.30;99.90
41838;DHT22;27511;52.042;5.178;2022-11-13T04:04:59;9.40;99.90
41838;DHT22;27511;52.042;5.178;2022-11-13T04:07:25;9.50;99.90
41838;DHT22;27511;52.042;5.178;2022-11-13T04:09:51;9.60;99.90
41838;DHT22;27511;52.042;5.178;2022-11-13T04:12:16;9.60;99.90
41838;DHT22;27511;52.042;5.178;2022-11-13T04:14:42;9.60;99.90
41838;DHT22;27511;52.042;5.178;2022-11-13T04:17:07;9.70;99.90
41838;DHT22;27511;52.042;5.178;2022-11-13T04:19:33;9.70;99.90
41838;DHT22;27511;52.042;5.178;2022-11-13T04:21:58;9.70;99.90
41838;DHT22;27511;52.042;5.178;2022-11-13T04:24:24;9.80;99.90
41838;DHT22;27511;52.042;5.178;2022-11-13T04:26:49;9.80;99.90
41838;DHT22;27511;52.042;5.178;2022-11-13T04:29:15;9.90;99.90
41838;DHT22;27511;52.042;5.178;2022-11-13T04:31:40;9.90;99.90
41838;DHT22;27511;52.042;5.178;2022-11-13T04:34:07;9.90;99.90
41838;DHT22;27511;52.042;5.178;2022-11-13T04:36:33;9.90;99.90
41838;DHT22;27511;52.042;5.178;2022-11-13T04:38:58;9.90;99.90
41838;DHT22;27511;52.042;5.178;2022-11-13T04:41:24;10.00;99.90
41838;DHT22;27511;52.042;5.178;2022-11-13T04:44:08;10.00;99.90
41838;DHT22;27511;52.042;5.178;2022-11-13T04:46:33;10.00;99.90
41838;DHT22;27511;52.042;5.178;2022-11-13T04:48:59;10.00;99.90
41838;DHT22;27511;52.042;5.178;2022-11-13T04:51:24;10.00;99.90
41838;DHT22;27511;52.042;5.178;2022-11-13T04:53:50;10.00;99.90
41838;DHT22;27511;52.042;5.178;2022-11-13T04:56:15;9.90;99.90
41838;DHT22;27511;52.042;5.178;2022-11-13T04:58:41;9.90;99.90
41838;DHT22;27511;52.042;5.178;2022-11-13T05:01:07;9.90;99.90
41838;DHT22;27511;52.042;5.178;2022-11-13T05:03:32;9.90;99.90
41838;DHT22;27511;52.042;5.178;2022-11-13T05:06:04;9.90;99.90
41838;DHT22;27511;52.042;5.178;2022-11-13T05:08:30;9.90;99.90
41838;DHT22;27511;52.042;5.178;2022-11-13T05:10:55;9.90;99.90
41838;DHT22;27511;52.042;5.178;2022-11-13T05:13:21;9.90;99.90
41838;DHT22;27511;52.042;5.178;2022-11-13T05:15:46;9.90;99.90
41838;DHT22;27511;52.042;5.178;2022-11-13T05:18:13;9.90;99.90
41838;DHT22;27511;52.042;5.178;2022-11-13T05:20:39;9.90;99.90
41838;DHT22;27511;52.042;5.178;2022-11-13T05:23:04;9.90;99.90
41838;DHT22;27511;52.042;5.178;2022-11-13T05:25:30;9.90;99.90
41838;DHT22;27511;52.042;5.178;2022-11-13T05:27:58;9.90;99.90
41838;DHT22;27511;52.042;5.178;2022-11-13T05:30:24;9.90;99.90
41838;DHT22;27511;52.042;5.178;2022-11-13T05:32:51;9.80;99.90
41838;DHT22;27511;52.042;5.178;2022-11-13T05:35:16;9.80;99.90
41838;DHT22;27511;52.042;5.178;2022-11-13T05:37:42;9.80;99.90
41838;DHT22;27511;52.042;5.178;2022-11-13T05:40:08;9.80;99.90
41838;DHT22;27511;52.042;5.178;2022-11-13T05:42:34;9.70;99.90
41838;DHT22;27511;52.042;5.178;2022-11-13T05:44:59;9.70;99.90
41838;DHT22;27511;52.042;5.178;2022-11-13T05:47:25;9.70;99.90
41838;DHT22;27511;52.042;5.178;2022-11-13T05:49:50;9.70;99.90
41838;DHT22;27511;52.042;5.178;2022-11-13T05:52:16;9.60;99.90
41838;DHT22;27511;52.042;5.178;2022-11-13T05:54:41;9.60;99.90
41838;DHT22;27511;52.042;5.178;2022-11-13T05:57:07;9.50;99.90
41838;DHT22;27511;52.042;5.178;2022-11-13T05:59:32;9.50;99.90
41838;DHT22;27511;52.042;5.178;2022-11-13T06:01:58;9.50;99.90
41838;DHT22;27511;52.042;5.178;2022-11-13T06:04:23;9.50;99.90
41838;DHT22;27511;52.042;5.178;2022-11-13T06:06:49;9.60;99.90
41838;DHT22;27511;52.042;5.178;2022-11-13T06:09:15;9.50;99.90
41838;DHT22;27511;52.042;5.178;2022-11-13T06:11:42;9.50;99.90
41838;DHT22;27511;52.042;5.178;2022-11-13T06:14:08;9.50;99.90
41838;DHT22;27511;52.042;5.178;2022-11-13T06:16:36;9.40;99.90
41838;DHT22;27511;52.042;5.178;2022-11-13T06:19:04;9.40;99.90
41838;DHT22;27511;52.042;5.178;2022-11-13T06:21:31;9.40;99.90
41838;DHT22;27511;52.042;5.178;2022-11-13T06:23:59;9.30;99.90
41838;DHT22;27511;52.042;5.178;2022-11-13T06:26:34;9.30;99.90
41838;DHT22;27511;52.042;5.178;2022-11-13T06:29:02;9.30;99.90
41838;DHT22;27511;52.042;5.178;2022-11-13T06:31:30;9.30;99.90
41838;DHT22;27511;52.042;5.178;2022-11-13T06:33:57;9.20;99.90
41838;DHT22;27511;52.042;5.178;2022-11-13T06:36:26;9.20;99.90
41838;DHT22;27511;52.042;5.178;2022-11-13T06:38:52;9.20;99.90
41838;DHT22;27511;52.042;5.178;2022-11-13T06:41:24;9.20;99.90
41838;DHT22;27511;52.042;5.178;2022-11-13T06:43:49;9.20;99.90
41838;DHT22;27511;52.042;5.178;2022-11-13T06:46:21;9.10;99.90
41838;DHT22;27511;52.042;5.178;2022-11-13T06:48:48;9.00;99.90
41838;DHT22;27511;52.042;5.178;2022-11-13T06:51:23;9.00;99.90
41838;DHT22;27511;52.042;5.178;2022-11-13T06:53:49;9.00;99.90
41838;DHT22;27511;52.042;5.178;2022-11-13T06:56:15;9.00;99.90
41838;DHT22;27511;52.042;5.178;2022-11-13T06:58:41;8.90;99.90
41838;DHT22;27511;52.042;5.178;2022-11-13T07:01:22;8.90;99.90
41838;DHT22;27511;52.042;5.178;2022-11-13T07:03:48;8.90;99.90
41838;DHT22;27511;52.042;5.178;2022-11-13T07:06:19;8.80;99.90
41838;DHT22;27511;52.042;5.178;2022-11-13T07:08:46;8.80;99.90
41838;DHT22;27511;52.042;5.178;2022-11-13T07:11:14;8.80;99.90
41838;DHT22;27511;52.042;5.178;2022-11-13T07:13:41;8.80;99.90
41838;DHT22;27511;52.042;5.178;2022-11-13T07:16:07;8.80;99.90
41838;DHT22;27511;52.042;5.178;2022-11-13T07:18:33;8.80;99.90
41838;DHT22;27511;52.042;5.178;2022-11-13T07:21:04;8.80;99.90
41838;DHT22;27511;52.042;5.178;2022-11-13T07:23:30;8.80;99.90
41838;DHT22;27511;52.042;5.178;2022-11-13T07:25:56;8.70;99.90
41838;DHT22;27511;52.042;5.178;2022-11-13T07:28:22;8.80;99.90
41838;DHT22;27511;52.042;5.178;2022-11-13T07:30:47;8.80;99.90
41838;DHT22;27511;52.042;5.178;2022-11-13T07:33:13;8.90;99.90
41838;DHT22;27511;52.042;5.178;2022-11-13T07:35:39;8.90;99.90
41838;DHT22;27511;52.042;5.178;2022-11-13T07:38:04;8.90;99.90
41838;DHT22;27511;52.042;5.178;2022-11-13T07:40:30;8.90;99.90
41838;DHT22;27511;52.042;5.178;2022-11-13T07:42:59;8.90;99.90
41838;DHT22;27511;52.042;5.178;2022-11-13T07:45:26;8.90;99.90
41838;DHT22;27511;52.042;5.178;2022-11-13T07:48:00;9.00;99.90
41838;DHT22;27511;52.042;5.178;2022-11-13T07:50:31;9.00;99.90
41838;DHT22;27511;52.042;5.178;2022-11-13T07:52:59;9.00;99.90
41838;DHT22;27511;52.042;5.178;2022-11-13T07:55:26;9.10;99.90
41838;DHT22;27511;52.042;5.178;2022-11-13T07:57:59;9.10;99.90
41838;DHT22;27511;52.042;5.178;2022-11-13T08:00:26;9.10;99.90
41838;DHT22;27511;52.042;5.178;2022-11-13T08:02:51;9.10;99.90
41838;DHT22;27511;52.042;5.178;2022-11-13T08:05:17;9.10;99.90
41838;DHT22;27511;52.042;5.178;2022-11-13T08:07:45;9.10;99.90
41838;DHT22;27511;52.042;5.178;2022-11-13T08:10:11;9.10;99.90
41838;DHT22;27511;52.042;5.178;2022-11-13T08:12:37;9.20;99.90
41838;DHT22;27511;52.042;5.178;2022-11-13T08:15:02;9.20;99.90
41838;DHT22;27511;52.042;5.178;2022-11-13T08:17:28;9.20;99.90
41838;DHT22;27511;52.042;5.178;2022-11-13T08:19:53;9.30;99.90
41838;DHT22;27511;52.042;5.178;2022-11-13T08:22:19;9.30;99.90
41838;DHT22;27511;52.042;5.178;2022-11-13T08:24:45;9.40;99.90
41838;DHT22;27511;52.042;5.178;2022-11-13T08:27:10;9.40;99.90
41838;DHT22;27511;52.042;5.178;2022-11-13T08:29:36;9.50;99.90
41838;DHT22;27511;52.042;5.178;2022-11-13T08:32:02;9.60;99.90
41838;DHT22;27511;52.042;5.178;2022-11-13T08:34:29;9.60;99.90
41838;DHT22;27511;52.042;5.178;2022-11-13T08:36:55;9.70;99.90
41838;DHT22;27511;52.042;5.178;2022-11-13T08:39:20;9.80;99.90
41838;DHT22;27511;52.042;5.178;2022-11-13T08:41:46;9.80;99.90
41838;DHT22;27511;52.042;5.178;2022-11-13T08:44:12;9.90;99.90
41838;DHT22;27511;52.042;5.178;2022-11-13T08:46:39;9.90;99.90
41838;DHT22;27511;52.042;5.178;2022-11-13T08:49:04;10.00;99.90
41838;DHT22;27511;52.042;5.178;2022-11-13T08:51:30;10.00;99.90
41838;DHT22;27511;52.042;5.178;2022-11-13T08:53:55;10.10;99.90
41838;DHT22;27511;52.042;5.178;2022-11-13T08:56:21;10.20;99.90
41838;DHT22;27511;52.042;5.178;2022-11-13T08:58:46;10.20;99.90
41838;DHT22;27511;52.042;5.178;2022-11-13T09:01:12;10.30;99.90
41838;DHT22;27511;52.042;5.178;2022-11-13T09:03:37;10.30;99.90
41838;DHT22;27511;52.042;5.178;2022-11-13T09:06:07;10.40;99.90
41838;DHT22;27511;52.042;5.178;2022-11-13T09:08:33;10.40;99.90
41838;DHT22;27511;52.042;5.178;2022-11-13T09:11:05;10.50;99.90
41838;DHT22;27511;52.042;5.178;2022-11-13T09:13:32;10.50;99.90
41838;DHT22;27511;52.042;5.178;2022-11-13T09:15:59;10.60;99.90
41838;DHT22;27511;52.042;5.178;2022-11-13T09:18:24;10.70;99.90
41838;DHT22;27511;52.042;5.178;2022-11-13T09:20:50;10.70;99.90
41838;DHT22;27511;52.042;5.178;2022-11-13T09:23:15;10.80;99.90
41838;DHT22;27511;52.042;5.178;2022-11-13T09:25:41;10.80;99.90
41838;DHT22;27511;52.042;5.178;2022-11-13T09:28:08;10.90;99.90
41838;DHT22;27511;52.042;5.178;2022-11-13T09:30:37;10.90;99.90
41838;DHT22;27511;52.042;5.178;2022-11-13T09:33:03;11.00;99.90
41838;DHT22;27511;52.042;5.178;2022-11-13T09:35:30;11.00;99.90
41838;DHT22;27511;52.042;5.178;2022-11-13T09:38:03;11.10;99.90
41838;DHT22;27511;52.042;5.178;2022-11-13T09:43:20;11.20;99.90
41838;DHT22;27511;52.042;5.178;2022-11-13T09:45:48;11.20;99.90
41838;DHT22;27511;52.042;5.178;2022-11-13T09:48:29;11.30;99.90
41838;DHT22;27511;52.042;5.178;2022-11-13T09:50:59;11.30;99.90
41838;DHT22;27511;52.042;5.178;2022-11-13T09:53:33;11.30;99.90
41838;DHT22;27511;52.042;5.178;2022-11-13T10:02:10;11.50;99.90
41838;DHT22;27511;52.042;5.178;2022-11-13T10:05:10;11.50;99.90
41838;DHT22;27511;52.042;5.178;2022-11-13T10:07:47;11.60;99.90
41838;DHT22;27511;52.042;5.178;2022-11-13T10:10:42;11.70;99.90
41838;DHT22;27511;52.042;5.178;2022-11-13T10:13:23;11.70;99.90
41838;DHT22;27511;52.042;5.178;2022-11-13T10:16:01;11.70;99.90
41838;DHT22;27511;52.042;5.178;2022-11-13T10:18:34;11.80;99.90
41838;DHT22;27511;52.042;5.178;2022-11-13T10:21:30;11.90;99.90
41838;DHT22;27511;52.042;5.178;2022-11-13T10:23:56;12.00;99.90
41838;DHT22;27511;52.042;5.178;2022-11-13T10:26:23;12.00;99.90
41838;DHT22;27511;52.042;5.178;2022-11-13T10:28:59;12.20;99.90
41838;DHT22;27511;52.042;5.178;2022-11-13T10:31:25;12.20;99.90
41838;DHT22;27511;52.042;5.178;2022-11-13T10:33:53;12.20;99.90
41838;DHT22;27511;52.042;5.178;2022-11-13T10:39:27;12.40;99.90
41838;DHT22;27511;52.042;5.178;2022-11-13T10:41:54;12.50;99.90
41838;DHT22;27511;52.042;5.178;2022-11-13T10:44:25;12.50;99.90
41838;DHT22;27511;52.042;5.178;2022-11-13T10:47:02;12.60;99.90
41838;DHT22;27511;52.042;5.178;2022-11-13T10:49:27;12.70;99.90
41838;DHT22;27511;52.042;5.178;2022-11-13T10:51:55;12.70;99.90
41838;DHT22;27511;52.042;5.178;2022-11-13T10:54:31;12.80;99.90
41838;DHT22;27511;52.042;5.178;2022-11-13T10:57:05;12.90;99.90
41838;DHT22;27511;52.042;5.178;2022-11-13T10:59:43;12.90;99.90
41838;DHT22;27511;52.042;5.178;2022-11-13T11:02:20;13.00;99.90
41838;DHT22;27511;52.042;5.178;2022-11-13T11:04:47;13.10;99.90
41838;DHT22;27511;52.042;5.178;2022-11-13T11:07:18;13.20;99.90
41838;DHT22;27511;52.042;5.178;2022-11-13T11:09:45;13.20;99.90
41838;DHT22;27511;52.042;5.178;2022-11-13T11:12:19;13.30;99.90
41838;DHT22;27511;52.042;5.178;2022-11-13T11:17:39;13.40;99.90
41838;DHT22;27511;52.042;5.178;2022-11-13T11:20:15;13.50;99.90
41838;DHT22;27511;52.042;5.178;2022-11-13T11:22:46;13.50;99.90
41838;DHT22;27511;52.042;5.178;2022-11-13T11:25:17;13.60;99.90
41838;DHT22;27511;52.042;5.178;2022-11-13T11:28:06;13.60;99.90
41838;DHT22;27511;52.042;5.178;2022-11-13T11:30:41;13.60;99.90
41838;DHT22;27511;52.042;5.178;2022-11-13T11:33:31;13.80;99.90
41838;DHT22;27511;52.042;5.178;2022-11-13T11:36:24;13.80;99.90
41838;DHT22;27511;52.042;5.178;2022-11-13T11:39:14;13.80;99.90
41838;DHT22;27511;52.042;5.178;2022-11-13T11:45:11;14.00;99.90
41838;DHT22;27511;52.042;5.178;2022-11-13T11:47:38;14.00;99.90
41838;DHT22;27511;52.042;5.178;2022-11-13T11:50:14;14.10;99.90
41838;DHT22;27511;52.042;5.178;2022-11-13T11:52:52;14.20;99.90
41838;DHT22;27511;52.042;5.178;2022-11-13T11:58:53;14.30;99.90
41838;DHT22;27511;52.042;5.178;2022-11-13T12:10:12;14.60;99.90
41838;DHT22;27511;52.042;5.178;2022-11-13T12:12:48;14.70;99.90
41838;DHT22;27511;52.042;5.178;2022-11-13T12:15:39;14.70;99.90
41838;DHT22;27511;52.042;5.178;2022-11-13T12:19:13;14.80;99.90
41838;DHT22;27511;52.042;5.178;2022-11-13T12:21:20;14.80;99.90
41838;DHT22;27511;52.042;5.178;2022-11-13T12:26:42;14.90;99.90
41838;DHT22;27511;52.042;5.178;2022-11-13T12:36:45;15.00;99.90
41838;DHT22;27511;52.042;5.178;2022-11-13T12:42:03;15.20;99.90
41838;DHT22;27511;52.042;5.178;2022-11-13T12:47:26;15.90;99.90
41838;DHT22;27511;52.042;5.178;2022-11-13T12:50:18;16.60;99.90
41838;DHT22;27511;52.042;5.178;2022-11-13T12:52:55;17.30;99.90
41838;DHT22;27511;52.042;5.178;2022-11-13T12:55:29;17.80;99.90
41838;DHT22;27511;52.042;5.178;2022-11-13T12:58:09;18.50;99.90
41838;DHT22;27511;52.042;5.178;2022-11-13T13:00:38;18.70;99.90
41838;DHT22;27511;52.042;5.178;2022-11-13T13:03:19;18.80;99.90
41838;DHT22;27511;52.042;5.178;2022-11-13T13:09:02;18.90;99.90
41838;DHT22;27511;52.042;5.178;2022-11-13T13:16:49;18.90;99.90
41838;DHT22;27511;52.042;5.178;2022-11-13T13:19:30;19.10;99.90
41838;DHT22;27511;52.042;5.178;2022-11-13T13:21:56;19.20;99.90
41838;DHT22;27511;52.042;5.178;2022-11-13T13:24:43;19.40;99.90
41838;DHT22;27511;52.042;5.178;2022-11-13T13:27:23;19.40;99.90
41838;DHT22;27511;52.042;5.178;2022-11-13T13:29:49;19.20;99.90
41838;DHT22;27511;52.042;5.178;2022-11-13T13:32:35;19.00;99.90
41838;DHT22;27511;52.042;5.178;2022-11-13T13:35:33;18.80;99.90
41838;DHT22;27511;52.042;5.178;2022-11-13T13:38:15;18.50;99.90
41838;DHT22;27511;52.042;5.178;2022-11-13T13:41:08;18.20;99.90
41838;DHT22;27511;52.042;5.178;2022-11-13T13:46:28;17.80;99.90
41838;DHT22;27511;52.042;5.178;2022-11-13T13:48:59;17.60;99.90
41838;DHT22;27511;52.042;5.178;2022-11-13T13:53:52;17.40;99.90
41838;DHT22;27511;52.042;5.178;2022-11-13T13:56:20;17.40;99.90
41838;DHT22;27511;52.042;5.178;2022-11-13T13:58:46;17.30;99.90
41838;DHT22;27511;52.042;5.178;2022-11-13T14:01:24;17.20;99.90
41838;DHT22;27511;52.042;5.178;2022-11-13T14:04:24;17.20;99.90
41838;DHT22;27511;52.042;5.178;2022-11-13T14:06:53;17.00;99.90
41838;DHT22;27511;52.042;5.178;2022-11-13T14:09:21;17.00;99.90
41838;DHT22;27511;52.042;5.178;2022-11-13T14:11:47;17.00;99.90
41838;DHT22;27511;52.042;5.178;2022-11-13T14:14:18;16.90;99.90
41838;DHT22;27511;52.042;5.178;2022-11-13T14:16:53;16.90;99.90
41838;DHT22;27511;52.042;5.178;2022-11-13T14:19:20;16.80;99.90
41838;DHT22;27511;52.042;5.178;2022-11-13T14:21:48;16.70;99.90
41838;DHT22;27511;52.042;5.178;2022-11-13T14:24:30;16.70;99.90
41838;DHT22;27511;52.042;5.178;2022-11-13T14:27:03;16.60;99.90
41838;DHT22;27511;52.042;5.178;2022-11-13T14:29:57;16.50;99.90
41838;DHT22;27511;52.042;5.178;2022-11-13T14:32:32;16.50;99.90
41838;DHT22;27511;52.042;5.178;2022-11-13T14:35:00;16.40;99.90
41838;DHT22;27511;52.042;5.178;2022-11-13T14:37:44;16.30;99.90
41838;DHT22;27511;52.042;5.178;2022-11-13T14:43:05;16.20;99.90
41838;DHT22;27511;52.042;5.178;2022-11-13T14:45:34;16.20;99.90
41838;DHT22;27511;52.042;5.178;2022-11-13T14:48:15;16.20;99.90
41838;DHT22;27511;52.042;5.178;2022-11-13T14:51:21;16.10;99.90
41838;DHT22;27511;52.042;5.178;2022-11-13T14:53:56;16.00;99.90
41838;DHT22;27511;52.042;5.178;2022-11-13T14:56:37;16.00;99.90
41838;DHT22;27511;52.042;5.178;2022-11-13T14:59:12;15.90;99.90
41838;DHT22;27511;52.042;5.178;2022-11-13T15:01:38;15.80;99.90
41838;DHT22;27511;52.042;5.178;2022-11-13T15:04:04;15.80;99.90
41838;DHT22;27511;52.042;5.178;2022-11-13T15:06:38;15.70;99.90
41838;DHT22;27511;52.042;5.178;2022-11-13T15:09:12;15.70;99.90
41838;DHT22;27511;52.042;5.178;2022-11-13T15:11:39;15.70;99.90
41838;DHT22;27511;52.042;5.178;2022-11-13T15:14:16;15.60;99.90
41838;DHT22;27511;52.042;5.178;2022-11-13T15:16:46;15.60;99.90
41838;DHT22;27511;52.042;5.178;2022-11-13T15:19:38;15.50;99.90
41838;DHT22;27511;52.042;5.178;2022-11-13T15:22:09;15.40;99.90
41838;DHT22;27511;52.042;5.178;2022-11-13T15:24:35;15.40;99.90
41838;DHT22;27511;52.042;5.178;2022-11-13T15:27:01;15.40;99.90
41838;DHT22;27511;52.042;5.178;2022-11-13T15:29:26;15.30;99.90
41838;DHT22;27511;52.042;5.178;2022-11-13T15:31:52;15.20;99.90
41838;DHT22;27511;52.042;5.178;2022-11-13T15:34:17;15.20;99.90
41838;DHT22;27511;52.042;5.178;2022-11-13T15:36:43;15.10;99.90
41838;DHT22;27511;52.042;5.178;2022-11-13T15:39:10;15.10;99.90
41838;DHT22;27511;52.042;5.178;2022-11-13T15:41:36;15.00;99.90
41838;DHT22;27511;52.042;5.178;2022-11-13T15:44:08;14.90;99.90
41838;DHT22;27511;52.042;5.178;2022-11-13T15:46:34;14.80;99.90
41838;DHT22;27511;52.042;5.178;2022-11-13T15:49:00;14.80;99.90
41838;DHT22;27511;52.042;5.178;2022-11-13T15:51:44;14.70;99.90
41838;DHT22;27511;52.042;5.178;2022-11-13T15:54:30;14.70;99.90
41838;DHT22;27511;52.042;5.178;2022-11-13T15:56:57;14.60;99.90
41838;DHT22;27511;52.042;5.178;2022-11-13T15:59:22;14.50;99.90
41838;DHT22;27511;52.042;5.178;2022-11-13T16:01:48;14.40;99.90
41838;DHT22;27511;52.042;5.178;2022-11-13T16:04:14;14.40;99.90
41838;DHT22;27511;52.042;5.178;2022-11-13T16:06:41;14.30;99.90
41838;DHT22;27511;52.042;5.178;2022-11-13T16:09:12;14.20;99.90
41838;DHT22;27511;52.042;5.178;2022-11-13T16:11:38;14.10;99.90
41838;DHT22;27511;52.042;5.178;2022-11-13T16:14:03;14.00;99.90
41838;DHT22;27511;52.042;5.178;2022-11-13T16:16:32;13.90;99.90
41838;DHT22;27511;52.042;5.178;2022-11-13T16:18:59;13.90;99.90
41838;DHT22;27511;52.042;5.178;2022-11-13T16:21:26;13.80;99.90
41838;DHT22;27511;52.042;5.178;2022-11-13T16:23:52;13.70;99.90
41838;DHT22;27511;52.042;5.178;2022-11-13T16:26:20;13.60;99.90
41838;DHT22;27511;52.042;5.178;2022-11-13T16:28:46;13.60;99.90
41838;DHT22;27511;52.042;5.178;2022-11-13T16:31:13;13.50;99.90
41838;DHT22;27511;52.042;5.178;2022-11-13T16:33:39;13.40;99.90
41838;DHT22;27511;52.042;5.178;2022-11-13T16:36:17;13.30;99.90
41838;DHT22;27511;52.042;5.178;2022-11-13T16:38:43;13.30;99.90
41838;DHT22;27511;52.042;5.178;2022-11-13T16:41:10;13.20;99.90
41838;DHT22;27511;52.042;5.178;2022-11-13T16:43:36;13.20;99.90
41838;DHT22;27511;52.042;5.178;2022-11-13T16:46:18;13.10;99.90
41838;DHT22;27511;52.042;5.178;2022-11-13T16:48:48;13.00;99.90
41838;DHT22;27511;52.042;5.178;2022-11-13T16:51:13;12.90;99.90
41838;DHT22;27511;52.042;5.178;2022-11-13T16:53:41;12.90;99.90
41838;DHT22;27511;52.042;5.178;2022-11-13T16:56:23;12.80;99.90